Time;durP1;ratioP1;P1;durP2;ratioP2;P2;SDS_P1;SDS_P2;PMS_P1;PMS_P2;Temp;Humidity;BMP_temperature;BMP_pressure;BME280_temperature;BME280_humidity;BME280_pressure;Samples;Min_cycle;Max_cycle;Signal;HPM_P1;HPM_P2
2022/02/21 00:00:17;;;;;;;3.53;0.83;;;7.70;99.90;;;;;;5055746;28;20216;-88
2022/02/21 00:02:46;;;;;;;3.10;0.83;;;7.80;99.90;;;;;;5055251;28;20192;-86
2022/02/21 00:05:14;;;;;;;1.80;0.50;;;7.80;99.90;;;;;;5056909;28;20217;-88
2022/02/21 00:07:41;;;;;;;9.70;1.27;;;7.70;99.90;;;;;;5066552;28;20270;-88
2022/02/21 00:10:08;;;;;;;1.53;1.17;;;7.70;99.90;;;;;;5021078;28;20244;-87
2022/02/21 00:12:34;;;;;;;1.13;0.80;;;7.70;99.90;;;;;;5058864;28;20213;-85
2022/02/21 00:15:01;;;;;;;4.50;1.20;;;7.80;99.90;;;;;;5056094;28;20316;-88
2022/02/21 00:17:27;;;;;;;1.13;0.90;;;7.70;99.90;;;;;;5037716;28;20239;-87
2022/02/21 00:19:52;;;;;;;5.27;1.00;;;7.70;99.90;;;;;;5054433;28;21146;-87
2022/02/21 00:22:18;;;;;;;2.90;1.30;;;7.60;99.90;;;;;;5054880;28;20255;-87
2022/02/21 00:24:44;;;;;;;13.97;4.07;;;7.60;99.90;;;;;;5039889;28;20227;-87
2022/02/21 00:27:09;;;;;;;3.23;1.10;;;7.60;99.90;;;;;;5056719;28;20197;-88
2022/02/21 00:29:35;;;;;;;0.80;0.80;;;7.50;99.90;;;;;;5057085;28;20190;-88
2022/02/21 00:32:01;;;;;;;2.37;1.90;;;7.50;99.90;;;;;;5058308;28;20300;-86
2022/02/21 00:34:27;;;;;;;3.03;0.77;;;7.60;99.90;;;;;;5056575;28;20333;-86
2022/02/21 00:36:52;;;;;;;4.20;1.10;;;7.50;99.90;;;;;;5054610;28;20216;-88
2022/02/21 00:39:18;;;;;;;3.17;1.03;;;7.50;99.90;;;;;;5039798;28;20241;-86
2022/02/21 00:41:44;;;;;;;1.07;0.70;;;7.50;99.90;;;;;;5041119;28;20189;-88
2022/02/21 00:44:10;;;;;;;2.17;1.13;;;7.50;99.90;;;;;;5057313;28;20262;-85
2022/02/21 00:46:35;;;;;;;4.97;2.50;;;7.50;99.90;;;;;;5054490;28;21267;-87
2022/02/21 00:49:03;;;;;;;1.13;0.90;;;7.30;99.90;;;;;;5054860;28;20303;-87
2022/02/21 00:51:29;;;;;;;2.50;1.10;;;7.20;99.90;;;;;;5058127;28;20217;-89
2022/02/21 00:53:55;;;;;;;4.57;0.70;;;7.20;99.90;;;;;;5057225;28;21183;-86
2022/02/21 00:56:21;;;;;;;0.47;0.47;;;7.30;99.90;;;;;;5057695;28;20807;-87
2022/02/21 00:58:46;;;;;;;5.23;1.10;;;7.30;99.90;;;;;;5056352;28;20225;-88
2022/02/21 01:01:12;;;;;;;5.83;1.20;;;7.30;99.90;;;;;;5038838;28;20244;-88
2022/02/21 01:03:38;;;;;;;1.90;1.23;;;7.20;99.90;;;;;;5022946;28;20559;-86
2022/02/21 01:06:04;;;;;;;11.90;1.57;;;7.30;99.90;;;;;;5065288;28;20189;-85
2022/02/21 01:08:30;;;;;;;4.60;1.17;;;7.40;99.90;;;;;;5053638;28;20237;-87
2022/02/21 01:10:56;;;;;;;2.30;0.83;;;7.30;99.90;;;;;;5052950;28;20689;-87
2022/02/21 01:13:22;;;;;;;0.93;0.40;;;7.20;99.90;;;;;;5055149;28;20277;-87
2022/02/21 01:15:48;;;;;;;2.77;1.07;;;7.20;99.90;;;;;;5065245;28;20305;-86
2022/02/21 01:18:13;;;;;;;0.90;0.73;;;7.20;99.90;;;;;;5066258;28;20340;-87
2022/02/21 01:20:39;;;;;;;0.70;0.70;;;7.20;99.90;;;;;;5032239;28;21026;-86
2022/02/21 01:23:05;;;;;;;0.60;0.60;;;7.20;99.90;;;;;;5054972;28;20222;-88
2022/02/21 01:25:31;;;;;;;4.50;1.20;;;7.30;99.90;;;;;;5065228;28;20232;-88
2022/02/21 01:27:57;;;;;;;0.30;0.30;;;7.30;99.90;;;;;;5020403;28;20344;-86
2022/02/21 01:30:23;;;;;;;1.77;0.70;;;7.30;99.90;;;;;;5065375;28;20216;-86
2022/02/21 01:32:48;;;;;;;1.83;0.83;;;7.20;99.90;;;;;;5039025;28;20209;-86
2022/02/21 01:35:14;;;;;;;1.23;1.07;;;7.20;99.90;;;;;;5065412;28;20232;-87
2022/02/21 01:37:40;;;;;;;4.00;0.93;;;7.20;99.90;;;;;;5054996;28;20601;-87
2022/02/21 01:40:07;;;;;;;1.80;0.60;;;7.20;99.90;;;;;;5056870;28;20282;-86
2022/02/21 01:42:34;;;;;;;1.03;0.73;;;7.10;99.90;;;;;;5065506;28;20304;-86
2022/02/21 01:45:00;;;;;;;1.60;1.07;;;7.20;99.90;;;;;;5038087;28;20193;-86
2022/02/21 01:47:26;;;;;;;1.53;0.70;;;7.20;99.90;;;;;;5054822;28;20200;-86
2022/02/21 01:49:52;;;;;;;1.77;0.50;;;7.10;99.90;;;;;;5022061;28;20228;-86
2022/02/21 01:52:19;;;;;;;2.67;0.77;;;7.10;99.90;;;;;;5064452;28;20225;-86
2022/02/21 01:54:45;;;;;;;0.70;0.70;;;7.10;99.90;;;;;;5054034;28;20243;-87
2022/02/21 01:57:13;;;;;;;2.97;1.57;;;7.10;99.90;;;;;;5064643;28;20217;-83
2022/02/21 01:59:39;;;;;;;2.57;0.90;;;7.10;99.90;;;;;;5054567;28;20689;-84
2022/02/21 02:02:07;;;;;;;1.10;1.10;;;7.10;99.90;;;;;;5054880;28;20217;-87
2022/02/21 02:04:33;;;;;;;3.50;1.40;;;7.10;99.90;;;;;;5038266;28;20229;-87
2022/02/21 02:07:02;;;;;;;10.17;1.50;;;7.10;99.90;;;;;;5038031;28;20660;-87
2022/02/21 02:09:28;;;;;;;1.57;1.17;;;7.10;99.90;;;;;;5054884;28;20217;-84
2022/02/21 02:11:54;;;;;;;0.83;0.83;;;7.10;99.90;;;;;;5056592;28;20246;-84
2022/02/21 02:14:27;;;;;;;0.97;0.30;;;7.10;99.90;;;;;;5038461;28;20224;-86
2022/02/21 02:16:53;;;;;;;8.20;2.13;;;7.00;99.90;;;;;;5052862;28;20307;-86
2022/02/21 02:19:19;;;;;;;1.60;1.13;;;7.00;99.90;;;;;;5064639;28;20742;-84
2022/02/21 02:21:47;;;;;;;1.87;1.07;;;6.80;99.90;;;;;;5064911;28;20709;-86
2022/02/21 02:24:13;;;;;;;1.20;1.13;;;6.80;99.90;;;;;;5065008;28;20205;-86
2022/02/21 02:26:42;;;;;;;2.63;1.23;;;6.80;99.90;;;;;;5020672;28;20197;-86
2022/02/21 02:29:08;;;;;;;0.83;0.83;;;6.80;99.90;;;;;;5064495;28;20213;-88
2022/02/21 02:31:34;;;;;;;1.70;1.07;;;6.80;99.90;;;;;;5054720;28;20217;-87
2022/02/21 02:33:59;;;;;;;1.73;1.53;;;6.80;99.90;;;;;;5038501;28;20233;-88
2022/02/21 02:36:27;;;;;;;3.30;0.47;;;6.80;99.90;;;;;;5053856;28;20378;-89
2022/02/21 02:38:53;;;;;;;1.60;0.70;;;6.80;99.90;;;;;;5052791;28;20209;-88
2022/02/21 02:41:19;;;;;;;3.97;1.43;;;6.80;99.90;;;;;;5053588;28;20270;-87
2022/02/21 02:43:45;;;;;;;2.60;1.33;;;6.80;99.90;;;;;;5050972;28;20225;-86
2022/02/21 02:46:11;;;;;;;0.70;0.47;;;6.80;99.90;;;;;;5053608;28;20227;-90
2022/02/21 02:48:36;;;;;;;0.20;0.20;;;6.80;99.90;;;;;;5036427;28;20224;-87
2022/02/21 02:51:02;;;;;;;0.70;0.57;;;6.70;99.90;;;;;;5036340;28;20276;-88
2022/02/21 02:53:29;;;;;;;3.27;1.20;;;6.70;99.90;;;;;;5052648;28;20239;-87
2022/02/21 02:55:55;;;;;;;1.07;1.07;;;6.80;99.90;;;;;;5062710;28;20618;-86
2022/02/21 02:58:21;;;;;;;1.87;1.73;;;6.70;99.90;;;;;;5063113;28;20225;-88
2022/02/21 03:00:47;;;;;;;2.37;1.20;;;6.70;99.90;;;;;;5053889;28;20213;-87
2022/02/21 03:03:14;;;;;;;2.63;0.90;;;6.70;99.90;;;;;;5053203;28;20205;-88
2022/02/21 03:05:40;;;;;;;7.70;1.00;;;6.70;99.90;;;;;;5064241;28;20202;-88
2022/02/21 03:08:06;;;;;;;0.87;0.77;;;6.80;99.90;;;;;;5021461;28;20267;-87
2022/02/21 03:10:31;;;;;;;1.50;0.93;;;6.80;99.90;;;;;;5032997;28;20310;-88
2022/02/21 03:12:57;;;;;;;6.17;2.03;;;6.90;99.90;;;;;;5042889;28;20244;-87
2022/02/21 03:15:23;;;;;;;4.40;1.43;;;6.80;99.90;;;;;;5058982;28;20225;-86
2022/02/21 03:17:48;;;;;;;1.60;1.07;;;6.80;99.90;;;;;;5024654;28;20193;-88
2022/02/21 03:20:14;;;;;;;2.10;0.77;;;6.70;99.90;;;;;;5067749;28;20217;-87
2022/02/21 03:22:40;;;;;;;5.03;0.93;;;6.70;99.90;;;;;;5024945;28;20354;-87
2022/02/21 03:25:06;;;;;;;1.10;0.73;;;6.60;99.90;;;;;;5041466;28;20595;-88
2022/02/21 03:27:39;;;;;;;2.40;1.70;;;6.60;99.90;;;;;;5067684;28;20240;-88
2022/02/21 03:30:06;;;;;;;0.40;0.40;;;6.60;99.90;;;;;;5056536;28;20197;-90
2022/02/21 03:32:31;;;;;;;4.00;1.17;;;6.60;99.90;;;;;;5057465;28;20198;-88
2022/02/21 03:34:57;;;;;;;2.00;0.70;;;6.60;99.90;;;;;;5067899;28;20245;-88
2022/02/21 03:37:23;;;;;;;15.30;3.83;;;6.60;99.90;;;;;;5041454;28;20225;-87
2022/02/21 03:39:50;;;;;;;5.67;1.47;;;6.60;99.90;;;;;;5057715;28;20213;-89
2022/02/21 03:42:16;;;;;;;2.70;1.47;;;6.60;99.90;;;;;;5058129;28;20193;-87
2022/02/21 03:44:41;;;;;;;3.00;0.83;;;6.40;99.90;;;;;;5058908;28;20996;-87
2022/02/21 03:47:08;;;;;;;3.97;0.60;;;6.40;99.90;;;;;;5071917;28;20213;-87
2022/02/21 03:49:33;;;;;;;0.70;0.60;;;6.40;99.90;;;;;;5040968;28;20217;-87
2022/02/21 03:51:59;;;;;;;0.30;0.30;;;6.40;99.90;;;;;;5055931;28;20214;-88
2022/02/21 03:54:25;;;;;;;0.50;0.50;;;6.30;99.90;;;;;;5057759;28;20233;-88
2022/02/21 03:56:50;;;;;;;0.37;0.37;;;6.40;99.90;;;;;;5068923;28;20202;-89
2022/02/21 03:59:16;;;;;;;2.80;1.33;;;6.40;99.90;;;;;;5040093;28;20964;-87
2022/02/21 04:01:42;;;;;;;2.77;1.70;;;6.40;99.90;;;;;;5056389;28;20266;-89
2022/02/21 04:04:07;;;;;;;2.03;0.80;;;6.30;99.90;;;;;;5067226;28;20217;-88
2022/02/21 04:06:33;;;;;;;1.53;0.53;;;6.40;99.90;;;;;;5054470;28;20624;-87
2022/02/21 04:08:59;;;;;;;0.97;0.97;;;6.30;99.90;;;;;;5039234;28;20209;-89
2022/02/21 04:11:25;;;;;;;1.13;0.80;;;6.40;99.90;;;;;;5041279;28;20284;-88
2022/02/21 04:13:50;;;;;;;0.60;0.53;;;6.40;99.90;;;;;;5067058;28;20228;-89
2022/02/21 04:16:16;;;;;;;4.13;0.80;;;6.40;99.90;;;;;;5057721;28;20229;-88
2022/02/21 04:18:42;;;;;;;12.93;1.50;;;6.40;99.90;;;;;;5040909;28;20221;-87
2022/02/21 04:21:08;;;;;;;4.63;0.67;;;6.40;99.90;;;;;;5057834;28;20197;-89
2022/02/21 04:23:33;;;;;;;2.60;0.63;;;6.40;99.90;;;;;;5041076;28;20357;-88
2022/02/21 04:25:59;;;;;;;6.13;0.93;;;6.40;99.90;;;;;;5067709;28;20217;-88
2022/02/21 04:28:25;;;;;;;1.47;0.63;;;6.50;99.90;;;;;;5056329;28;21128;-85
2022/02/21 04:30:50;;;;;;;8.47;1.70;;;6.50;99.90;;;;;;5024192;28;20221;-85
2022/02/21 04:33:17;;;;;;;1.53;1.43;;;6.50;99.90;;;;;;5054572;28;20667;-85
2022/02/21 04:35:43;;;;;;;1.70;0.87;;;6.50;99.90;;;;;;5066737;28;20290;-88
2022/02/21 04:38:10;;;;;;;0.70;0.70;;;6.50;99.90;;;;;;5032105;28;20225;-87
2022/02/21 04:40:36;;;;;;;19.73;2.10;;;6.50;99.90;;;;;;5055385;28;20220;-88
2022/02/21 04:43:01;;;;;;;3.50;0.70;;;6.40;99.90;;;;;;5056674;28;20225;-88
2022/02/21 04:45:27;;;;;;;0.63;0.60;;;6.40;99.90;;;;;;5057474;28;20351;-89
2022/02/21 04:47:53;;;;;;;2.50;1.40;;;6.40;99.90;;;;;;5056623;28;20212;-87
2022/02/21 04:50:19;;;;;;;0.97;0.60;;;6.40;99.90;;;;;;5055120;28;20674;-87
2022/02/21 04:52:45;;;;;;;1.57;1.47;;;6.40;99.90;;;;;;5056052;28;20225;-88
2022/02/21 04:55:13;;;;;;;2.93;0.97;;;6.40;99.90;;;;;;5040290;28;20225;-88
2022/02/21 04:57:41;;;;;;;0.87;0.87;;;6.50;99.90;;;;;;5071017;28;20678;-87
2022/02/21 05:00:10;;;;;;;3.83;2.00;;;6.50;99.90;;;;;;5039480;28;20189;-87
2022/02/21 05:02:35;;;;;;;2.50;2.37;;;6.50;99.90;;;;;;5056814;28;20194;-88
2022/02/21 05:05:01;;;;;;;1.43;1.33;;;6.50;99.90;;;;;;5053405;28;20274;-87
2022/02/21 05:07:27;;;;;;;5.63;1.43;;;6.40;99.90;;;;;;5053058;28;21119;-85
2022/02/21 05:09:52;;;;;;;1.70;1.33;;;6.40;99.90;;;;;;5070004;28;20220;-88
2022/02/21 05:12:18;;;;;;;4.07;1.07;;;6.50;99.90;;;;;;5055156;28;20308;-87
2022/02/21 05:14:44;;;;;;;4.70;0.77;;;6.60;99.90;;;;;;5054526;28;20251;-88
2022/02/21 05:17:10;;;;;;;3.20;0.53;;;6.60;99.90;;;;;;5063597;28;20232;-86
2022/02/21 05:19:35;;;;;;;9.30;1.63;;;6.60;99.90;;;;;;5054081;28;20833;-88
2022/02/21 05:22:02;;;;;;;0.90;0.90;;;6.60;99.90;;;;;;5039073;28;20217;-86
2022/02/21 05:24:28;;;;;;;2.77;0.90;;;6.70;99.90;;;;;;5065629;28;20229;-84
2022/02/21 05:26:54;;;;;;;2.77;1.53;;;6.60;99.90;;;;;;5056771;28;20211;-84
2022/02/21 05:29:19;;;;;;;2.47;1.40;;;6.60;99.90;;;;;;5065488;28;20246;-85
2022/02/21 05:31:46;;;;;;;1.43;1.33;;;6.60;99.90;;;;;;5038894;28;20225;-85
2022/02/21 05:34:13;;;;;;;0.70;0.63;;;6.50;99.90;;;;;;5053287;28;20292;-86
2022/02/21 05:36:39;;;;;;;0.60;0.60;;;6.60;99.90;;;;;;5056264;28;20251;-85
2022/02/21 05:39:04;;;;;;;3.97;1.63;;;6.60;99.90;;;;;;5020096;28;20189;-87
2022/02/21 05:41:30;;;;;;;8.10;1.50;;;6.60;99.90;;;;;;5053917;28;20194;-85
2022/02/21 05:43:56;;;;;;;2.77;1.00;;;6.50;99.90;;;;;;5062504;28;20220;-87
2022/02/21 05:46:21;;;;;;;1.07;0.50;;;6.50;99.90;;;;;;5052065;28;20210;-85
2022/02/21 05:48:47;;;;;;;2.13;1.57;;;6.50;99.90;;;;;;5036830;28;20217;-86
2022/02/21 05:51:13;;;;;;;4.73;1.17;;;6.40;99.90;;;;;;5061464;28;20201;-86
2022/02/21 05:53:42;;;;;;;1.67;1.57;;;6.50;99.90;;;;;;5059754;28;20220;-85
2022/02/21 05:56:08;;;;;;;0.70;0.70;;;6.50;99.90;;;;;;5024365;28;20593;-84
2022/02/21 05:58:34;;;;;;;8.37;1.73;;;6.50;99.90;;;;;;5050634;28;20290;-86
2022/02/21 06:01:00;;;;;;;1.47;0.70;;;6.50;99.90;;;;;;5054246;28;20220;-86
2022/02/21 06:03:26;;;;;;;1.47;1.37;;;6.50;99.90;;;;;;5064282;28;20275;-86
2022/02/21 06:05:52;;;;;;;6.50;1.80;;;6.40;99.90;;;;;;5063762;28;20193;-87
2022/02/21 06:08:17;;;;;;;1.80;1.73;;;6.50;99.90;;;;;;5054701;28;20217;-86
2022/02/21 06:10:43;;;;;;;8.03;2.13;;;6.40;99.90;;;;;;5064330;28;20241;-86
2022/02/21 06:13:09;;;;;;;4.43;2.23;;;6.40;99.90;;;;;;5053541;28;20343;-86
2022/02/21 06:15:35;;;;;;;1.23;0.80;;;6.40;99.90;;;;;;5039404;28;20213;-89
2022/02/21 06:18:00;;;;;;;1.90;1.30;;;6.40;99.90;;;;;;5037537;28;20654;-86
2022/02/21 06:20:27;;;;;;;4.83;1.23;;;6.40;99.90;;;;;;5031672;28;20204;-87
2022/02/21 06:22:54;;;;;;;2.73;2.00;;;6.40;99.90;;;;;;5054351;28;20224;-90
2022/02/21 06:25:19;;;;;;;1.23;1.13;;;6.40;99.90;;;;;;5056406;28;20307;-88
2022/02/21 06:27:45;;;;;;;7.70;1.00;;;6.40;99.90;;;;;;5015155;28;20304;-87
2022/02/21 06:30:11;;;;;;;3.80;2.33;;;6.40;99.90;;;;;;5047192;28;20669;-85
2022/02/21 06:32:37;;;;;;;4.77;0.97;;;6.50;99.90;;;;;;5024083;28;20200;-86
2022/02/21 06:35:03;;;;;;;2.30;0.63;;;6.40;99.90;;;;;;5037051;28;20244;-89
2022/02/21 06:37:29;;;;;;;3.10;0.60;;;6.40;99.90;;;;;;5037708;28;20605;-88
2022/02/21 06:39:55;;;;;;;1.43;1.33;;;6.40;99.90;;;;;;5064451;28;20209;-87
2022/02/21 06:42:21;;;;;;;2.23;1.40;;;6.50;99.90;;;;;;5053280;28;20250;-86
2022/02/21 06:44:46;;;;;;;0.63;0.63;;;6.50;99.90;;;;;;5067773;28;20197;-87
2022/02/21 06:47:12;;;;;;;0.80;0.80;;;6.50;99.90;;;;;;5025675;28;20217;-88
2022/02/21 06:49:38;;;;;;;0.93;0.80;;;6.50;99.90;;;;;;5040817;28;20214;-88
2022/02/21 06:52:04;;;;;;;0.40;0.40;;;6.50;99.90;;;;;;5068217;28;20224;-87
2022/02/21 06:54:30;;;;;;;5.37;1.47;;;6.50;99.90;;;;;;5041087;28;20240;-87
2022/02/21 06:56:56;;;;;;;5.40;2.00;;;6.50;99.90;;;;;;5058085;28;20193;-89
2022/02/21 06:59:22;;;;;;;8.27;1.00;;;6.50;99.90;;;;;;5058604;28;20252;-88
2022/02/21 07:01:47;;;;;;;0.67;0.67;;;6.60;99.90;;;;;;5025252;28;20225;-89
2022/02/21 07:04:13;;;;;;;7.50;1.63;;;6.60;99.90;;;;;;5041210;28;20236;-89
2022/02/21 07:06:39;;;;;;;4.10;1.27;;;6.50;99.90;;;;;;5040865;28;20721;-88
2022/02/21 07:09:05;;;;;;;0.60;0.60;;;6.50;99.90;;;;;;5059469;28;20285;-87
2022/02/21 07:11:31;;;;;;;1.70;1.40;;;6.50;99.90;;;;;;5057263;28;20185;-86
2022/02/21 07:13:57;;;;;;;10.30;1.80;;;6.60;99.90;;;;;;5041982;28;20236;-85
2022/02/21 07:16:23;;;;;;;0.93;0.93;;;6.60;99.90;;;;;;5040840;28;20298;-87
2022/02/21 07:18:48;;;;;;;1.33;1.23;;;6.60;99.90;;;;;;5043593;28;20232;-86
2022/02/21 07:21:14;;;;;;;3.70;1.50;;;6.60;99.90;;;;;;5056786;28;20191;-87
2022/02/21 07:23:40;;;;;;;0.50;0.30;;;6.70;99.90;;;;;;5068013;28;21346;-85
2022/02/21 07:26:05;;;;;;;1.17;1.13;;;6.70;99.90;;;;;;5036744;28;20224;-86
2022/02/21 07:28:32;;;;;;;7.53;1.83;;;6.70;99.90;;;;;;5064108;28;20706;-87
2022/02/21 07:30:58;;;;;;;1.13;0.93;;;6.70;99.90;;;;;;5053657;28;20336;-85
2022/02/21 07:33:23;;;;;;;0.70;0.70;;;6.70;99.90;;;;;;5054880;28;20235;-85
2022/02/21 07:35:49;;;;;;;2.47;1.03;;;6.70;99.90;;;;;;5053902;28;20225;-83
2022/02/21 07:38:15;;;;;;;0.90;0.60;;;6.70;99.90;;;;;;5052053;28;20220;-82
2022/02/21 07:40:41;;;;;;;1.60;0.87;;;6.70;99.90;;;;;;5040033;28;20286;-82
2022/02/21 07:43:07;;;;;;;10.47;1.00;;;6.70;99.90;;;;;;5038021;28;20215;-83
2022/02/21 07:45:33;;;;;;;1.77;0.70;;;6.80;99.90;;;;;;5054210;28;20232;-85
2022/02/21 07:48:01;;;;;;;6.17;2.27;;;6.70;99.90;;;;;;5066284;28;20194;-86
2022/02/21 07:50:30;;;;;;;4.93;1.07;;;6.70;99.90;;;;;;5066994;28;20197;-82
2022/02/21 07:53:00;;;;;;;0.70;0.70;;;6.70;99.90;;;;;;5057031;28;20249;-82
2022/02/21 07:55:26;;;;;;;1.03;0.97;;;6.60;99.90;;;;;;5054455;28;20225;-82
2022/02/21 07:57:53;;;;;;;7.03;1.43;;;6.40;99.90;;;;;;5066143;28;20237;-81
2022/02/21 08:00:20;;;;;;;5.27;1.90;;;6.10;99.90;;;;;;5055400;28;20232;-82
2022/02/21 08:02:46;;;;;;;0.50;0.50;;;6.00;99.90;;;;;;5039663;28;20193;-80
2022/02/21 08:05:12;;;;;;;2.10;1.00;;;5.80;99.90;;;;;;5056176;28;20274;-81
2022/02/21 08:07:39;;;;;;;2.70;1.07;;;5.70;99.90;;;;;;5057490;28;20593;-82
2022/02/21 08:10:05;;;;;;;0.50;0.50;;;5.60;99.90;;;;;;5032553;28;20262;-82
2022/02/21 08:12:31;;;;;;;2.17;1.33;;;5.40;99.90;;;;;;5048790;28;20224;-81
2022/02/21 08:14:58;;;;;;;0.90;0.83;;;5.10;99.90;;;;;;5053648;28;20213;-79
2022/02/21 08:17:25;;;;;;;2.10;0.70;;;4.50;99.90;;;;;;5040182;28;20274;-80
2022/02/21 08:19:50;;;;;;;0.30;0.30;;;4.00;99.90;;;;;;5056312;28;20271;-82
2022/02/21 08:22:16;;;;;;;0.40;0.40;;;4.00;99.90;;;;;;5056670;28;20222;-81
2022/02/21 08:24:42;;;;;;;0.63;0.63;;;4.10;99.90;;;;;;5053978;28;20270;-84
2022/02/21 08:27:08;;;;;;;0.40;0.40;;;4.20;99.90;;;;;;5066463;28;20592;-82
2022/02/21 08:29:34;;;;;;;19.93;0.67;;;4.20;99.90;;;;;;5041193;28;20639;-83
2022/02/21 08:32:00;;;;;;;1.07;1.03;;;4.40;99.90;;;;;;5047940;28;20243;-83
2022/02/21 08:34:27;;;;;;;0.63;0.63;;;4.50;99.90;;;;;;5054134;28;20252;-81
2022/02/21 08:36:53;;;;;;;5.63;1.30;;;4.60;99.90;;;;;;5048290;28;20232;-82
2022/02/21 08:39:19;;;;;;;0.93;0.80;;;4.70;99.90;;;;;;5061566;28;20801;-84
2022/02/21 08:41:44;;;;;;;1.10;1.00;;;4.70;99.90;;;;;;5037595;28;20646;-81
2022/02/21 08:44:10;;;;;;;0.77;0.57;;;4.70;99.90;;;;;;5052915;28;20236;-82
2022/02/21 08:46:36;;;;;;;3.73;0.67;;;4.80;99.90;;;;;;5037360;28;20217;-81
2022/02/21 08:49:04;;;;;;;0.50;0.50;;;4.80;99.90;;;;;;5039020;28;20318;-81
2022/02/21 08:51:30;;;;;;;3.20;0.57;;;4.80;99.90;;;;;;5065215;28;20217;-81
2022/02/21 08:53:56;;;;;;;14.00;0.67;;;4.80;99.90;;;;;;5055917;28;20708;-81
2022/02/21 08:56:22;;;;;;;0.73;0.73;;;4.80;99.90;;;;;;5065118;28;20233;-82
2022/02/21 08:58:47;;;;;;;3.80;0.73;;;4.90;99.90;;;;;;5064856;28;20221;-81
2022/02/21 09:01:13;;;;;;;1.90;1.73;;;4.90;99.90;;;;;;5037693;28;20581;-81
2022/02/21 09:03:40;;;;;;;5.07;2.70;;;5.00;99.90;;;;;;5036642;28;20266;-82
2022/02/21 09:06:08;;;;;;;7.67;2.20;;;5.00;99.90;;;;;;5064635;28;20225;-81
2022/02/21 09:08:34;;;;;;;10.70;1.97;;;5.00;99.90;;;;;;5039380;28;20193;-82
2022/02/21 09:11:01;;;;;;;11.30;2.47;;;5.10;99.90;;;;;;5064554;28;21015;-82
2022/02/21 09:13:27;;;;;;;8.60;1.17;;;5.20;99.90;;;;;;5021793;28;20232;-82
2022/02/21 09:15:52;;;;;;;1.50;1.37;;;5.40;99.90;;;;;;5064464;28;20213;-81
2022/02/21 09:18:18;;;;;;;0.67;0.60;;;5.50;99.90;;;;;;5055948;28;20281;-82
2022/02/21 09:20:44;;;;;;;1.93;1.17;;;5.60;99.90;;;;;;5054052;28;20246;-81
2022/02/21 09:23:10;;;;;;;1.57;1.47;;;5.60;99.90;;;;;;5053886;28;20253;-82
2022/02/21 09:25:36;;;;;;;4.27;2.53;;;5.70;99.90;;;;;;5037232;28;20220;-80
2022/02/21 09:28:02;;;;;;;0.87;0.87;;;5.80;99.90;;;;;;5036534;28;20712;-82
2022/02/21 09:30:27;;;;;;;1.13;0.73;;;5.80;99.90;;;;;;5051896;28;20221;-83
2022/02/21 09:32:53;;;;;;;1.27;0.73;;;5.80;99.90;;;;;;5052821;28;20189;-85
2022/02/21 09:35:24;;;;;;;0.47;0.40;;;6.00;99.90;;;;;;5053341;28;20225;-83
2022/02/21 09:37:51;;;;;;;2.47;2.37;;;6.10;99.90;;;;;;5063487;28;20268;-81
2022/02/21 09:40:19;;;;;;;0.80;0.80;;;6.10;99.90;;;;;;5051858;28;20243;-82
2022/02/21 09:42:46;;;;;;;1.87;1.33;;;6.10;99.90;;;;;;5063160;28;20567;-82
2022/02/21 09:45:12;;;;;;;2.07;0.93;;;6.20;99.90;;;;;;5053089;28;20466;-82
2022/02/21 09:47:38;;;;;;;2.43;2.23;;;6.30;99.90;;;;;;5065150;28;20194;-82
2022/02/21 09:50:07;;;;;;;0.93;0.57;;;6.30;99.90;;;;;;5065047;28;20221;-83
2022/02/21 09:52:33;;;;;;;0.50;0.40;;;6.40;99.90;;;;;;5054479;28;20221;-83
2022/02/21 09:54:59;;;;;;;8.87;1.27;;;6.40;99.90;;;;;;5021225;28;20237;-81
2022/02/21 09:57:25;;;;;;;1.77;1.53;;;6.40;99.90;;;;;;5064201;28;20304;-83
2022/02/21 09:59:51;;;;;;;4.83;1.97;;;6.50;99.90;;;;;;5062849;28;20223;-83
2022/02/21 10:02:26;;;;;;;9.63;0.70;;;6.50;99.90;;;;;;5061317;28;20307;-85
2022/02/21 10:05:17;;;;;;;1.00;1.00;;;6.50;99.90;;;;;;5062619;28;20227;-83
2022/02/21 10:07:44;;;;;;;4.43;1.83;;;6.70;99.90;;;;;;5062573;28;20213;-82
2022/02/21 10:10:13;;;;;;;6.50;2.63;;;6.70;99.90;;;;;;5062766;28;20217;-84
2022/02/21 10:12:47;;;;;;;1.67;1.07;;;6.60;99.90;;;;;;5061178;28;20310;-82
2022/02/21 10:15:22;;;;;;;3.90;1.87;;;6.70;99.90;;;;;;5051518;28;20313;-84
2022/02/21 10:17:49;;;;;;;1.50;1.40;;;6.70;99.90;;;;;;5052800;28;20213;-83
2022/02/21 10:20:17;;;;;;;3.83;1.90;;;6.80;99.90;;;;;;5066837;28;20301;-84
2022/02/21 10:23:04;;;;;;;2.70;1.10;;;6.80;99.90;;;;;;5055708;28;20216;-81
2022/02/21 10:25:30;;;;;;;2.13;1.23;;;6.90;99.90;;;;;;5040940;28;20213;-80
2022/02/21 10:27:59;;;;;;;1.33;1.23;;;6.90;99.90;;;;;;5065044;28;20217;-85
2022/02/21 10:30:26;;;;;;;4.37;0.83;;;7.00;99.90;;;;;;5056211;28;20682;-81
2022/02/21 10:32:52;;;;;;;6.90;0.97;;;7.10;99.90;;;;;;5066731;28;20662;-81
2022/02/21 10:35:27;;;;;;;1.00;0.70;;;7.10;99.90;;;;;;5067412;28;20232;-80
2022/02/21 10:37:59;;;;;;;4.83;1.87;;;7.20;99.90;;;;;;5055503;28;20301;-81
2022/02/21 10:40:35;;;;;;;2.90;1.87;;;7.20;99.90;;;;;;5056849;28;20725;-80
2022/02/21 10:43:17;;;;;;;1.13;0.93;;;7.20;99.90;;;;;;5067619;28;20217;-81
2022/02/21 10:45:45;;;;;;;2.97;0.60;;;7.40;99.90;;;;;;5067160;28;20228;-81
2022/02/21 10:48:20;;;;;;;1.33;0.90;;;7.40;99.90;;;;;;5068127;28;20192;-80
2022/02/21 10:51:12;;;;;;;2.53;0.40;;;7.40;99.90;;;;;;5067934;28;20185;-82
2022/02/21 10:53:40;;;;;;;6.77;1.73;;;7.50;99.90;;;;;;5051658;28;20233;-84
2022/02/21 10:56:07;;;;;;;4.60;2.90;;;7.50;99.90;;;;;;5067513;28;20240;-81
2022/02/21 10:58:33;;;;;;;2.60;2.40;;;7.60;99.90;;;;;;5055554;28;20220;-82
2022/02/21 11:01:00;;;;;;;4.10;1.50;;;7.70;99.90;;;;;;5040418;28;20213;-83
2022/02/21 11:03:28;;;;;;;8.13;2.20;;;7.70;99.90;;;;;;5066249;28;20221;-83
2022/02/21 11:05:56;;;;;;;0.90;0.90;;;7.70;99.90;;;;;;5067840;28;20190;-82
2022/02/21 11:08:26;;;;;;;2.27;1.90;;;7.80;99.90;;;;;;5055334;28;20231;-83
2022/02/21 11:11:00;;;;;;;5.80;2.50;;;7.80;99.90;;;;;;5066858;28;20970;-82
2022/02/21 11:13:28;;;;;;;1.77;1.57;;;8.00;99.90;;;;;;5056894;28;20440;-81
2022/02/21 11:15:54;;;;;;;2.73;0.57;;;8.00;99.90;;;;;;5058181;28;20321;-81
2022/02/21 11:18:20;;;;;;;12.10;1.23;;;8.10;99.90;;;;;;5022355;28;20225;-80
2022/02/21 11:20:46;;;;;;;2.70;1.77;;;8.10;99.90;;;;;;5054713;28;20208;-85
2022/02/21 11:23:12;;;;;;;11.03;2.17;;;8.00;99.90;;;;;;5066311;28;20221;-82
2022/02/21 11:25:58;;;;;;;4.73;0.70;;;8.10;99.90;;;;;;5040034;28;20219;-82
2022/02/21 11:28:36;;;;;;;2.63;1.00;;;8.10;99.90;;;;;;5066838;28;20274;-82
2022/02/21 11:31:06;;;;;;;3.87;2.40;;;8.10;99.90;;;;;;5066980;28;20262;-82
2022/02/21 11:33:32;;;;;;;7.00;2.17;;;8.10;99.90;;;;;;5066243;28;20572;-83
2022/02/21 11:36:04;;;;;;;3.37;3.07;;;8.10;99.90;;;;;;5065557;28;20229;-84
2022/02/21 11:38:30;;;;;;;1.20;0.87;;;8.10;99.90;;;;;;5063317;28;20193;-84
2022/02/21 11:41:33;;;;;;;1.47;1.37;;;8.10;99.90;;;;;;5050671;28;20224;-82
2022/02/21 11:44:21;;;;;;;2.17;2.03;;;8.10;99.90;;;;;;5039594;28;20212;-82
2022/02/21 11:46:47;;;;;;;7.07;1.37;;;8.20;99.90;;;;;;5038667;28;20606;-82
2022/02/21 11:49:30;;;;;;;0.80;0.80;;;8.40;99.90;;;;;;5062744;28;20235;-80
2022/02/21 11:51:57;;;;;;;0.10;0.10;;;8.60;99.90;;;;;;5065412;28;20217;-83
2022/02/21 11:54:23;;;;;;;1.10;0.80;;;8.60;99.90;;;;;;5054411;28;20233;-80
2022/02/21 11:56:52;;;;;;;1.50;0.80;;;8.60;99.90;;;;;;5066082;28;20997;-82
2022/02/21 11:59:21;;;;;;;3.47;1.80;;;8.60;99.90;;;;;;5053646;28;20651;-81
2022/02/21 12:02:10;;;;;;;4.13;1.43;;;8.80;99.90;;;;;;5054747;28;20232;-82
2022/02/21 12:04:56;;;;;;;0.50;0.50;;;8.80;99.90;;;;;;5062878;28;20225;-82
2022/02/21 12:07:35;;;;;;;0.30;0.30;;;8.80;99.90;;;;;;5062629;28;20227;-80
2022/02/21 12:10:21;;;;;;;0.63;0.30;;;8.70;99.90;;;;;;5062949;28;20252;-81
2022/02/21 12:12:57;;;;;;;5.80;0.87;;;8.70;99.90;;;;;;5053956;28;20316;-81
2022/02/21 12:15:34;;;;;;;8.90;0.97;;;8.70;99.90;;;;;;5048529;28;20314;-80
2022/02/21 12:18:09;;;;;;;0.73;0.67;;;8.70;99.90;;;;;;5048566;28;20574;-81
2022/02/21 12:20:40;;;;;;;3.03;1.00;;;8.60;99.90;;;;;;5060358;28;20193;-80
2022/02/21 12:23:12;;;;;;;0.30;0.20;;;8.70;99.90;;;;;;5059915;28;20232;-81
2022/02/21 12:25:41;;;;;;;0.53;0.53;;;8.70;99.90;;;;;;5060454;28;20229;-81
2022/02/21 12:28:21;;;;;;;5.63;5.13;;;8.60;99.90;;;;;;5060779;28;20286;-80
2022/02/21 12:30:49;;;;;;;0.17;0.17;;;8.60;99.90;;;;;;5060263;28;21070;-82
2022/02/21 12:33:30;;;;;;;12.97;1.13;;;8.60;99.90;;;;;;5047008;28;20204;-80
2022/02/21 12:36:01;;;;;;;3.07;1.23;;;8.60;99.90;;;;;;5059947;28;20592;-82
2022/02/21 12:38:32;;;;;;;1.47;0.70;;;8.60;99.90;;;;;;5060085;28;20213;-81
2022/02/21 12:41:05;;;;;;;3.90;0.83;;;8.50;99.90;;;;;;5047438;28;20582;-81
2022/02/21 12:43:49;;;;;;;3.30;1.70;;;8.50;99.90;;;;;;5060860;28;20809;-80
2022/02/21 12:46:17;;;;;;;0.87;0.83;;;8.50;99.90;;;;;;5060815;28;20217;-81
2022/02/21 12:48:44;;;;;;;1.70;1.03;;;8.70;99.90;;;;;;5051273;28;20271;-81
2022/02/21 12:51:22;;;;;;;2.00;1.30;;;8.60;99.90;;;;;;5036166;28;20196;-82
2022/02/21 12:54:00;;;;;;;3.60;0.50;;;8.70;99.90;;;;;;5052573;28;20220;-80
2022/02/21 12:56:28;;;;;;;7.10;0.73;;;8.40;99.90;;;;;;5061498;28;20205;-82
2022/02/21 12:58:54;;;;;;;1.90;1.13;;;8.20;99.90;;;;;;5060794;28;20239;-82